Time;durP1;ratioP1;P1;durP2;ratioP2;P2;SDS_P1;SDS_P2;PMS_P1;PMS_P2;Temp;Humidity;BMP_temperature;BMP_pressure;BME280_temperature;BME280_humidity;BME280_pressure;Samples;Min_cycle;Max_cycle;Signal;HPM_P1;HPM_P2
2022/10/03 00:01:01;;;;;;;;;;;15.00;67.20;;;;;;5049455;28;19941;-82
2022/10/03 00:03:28;;;;;;;;;;;15.00;67.20;;;;;;5032801;28;19913;-81
2022/10/03 00:05:53;;;;;;;;;;;15.00;67.30;;;;;;5049949;28;19995;-82
2022/10/03 00:08:28;;;;;;;;;;;15.00;67.30;;;;;;5049300;28;20002;-82
2022/10/03 00:11:06;;;;;;;;;;;14.90;67.30;;;;;;5032591;28;19923;-82
2022/10/03 00:13:42;;;;;;;;;;;14.90;67.30;;;;;;5033158;28;19917;-82
2022/10/03 00:16:17;;;;;;;;;;;14.90;67.30;;;;;;5033068;28;20254;-82
2022/10/03 00:18:50;;;;;;;;;;;14.90;67.30;;;;;;5033614;28;19920;-82
2022/10/03 00:21:36;;;;;;;;;;;14.90;67.40;;;;;;5033674;28;20472;-81
2022/10/03 00:24:08;;;;;;;;;;;14.80;67.30;;;;;;5034549;28;19963;-81
2022/10/03 00:26:34;;;;;;;;;;;14.80;67.40;;;;;;5037305;28;19917;-82
2022/10/03 00:29:05;;;;;;;;;;;14.80;67.40;;;;;;5035988;28;20374;-81
2022/10/03 00:31:49;;;;;;;;;;;14.80;67.40;;;;;;5036864;28;19921;-81
2022/10/03 00:34:31;;;;;;;;;;;14.70;67.40;;;;;;5052572;28;19913;-81
2022/10/03 00:37:23;;;;;;;;;;;14.70;67.40;;;;;;5036583;28;20368;-82
2022/10/03 00:39:58;;;;;;;;;;;14.70;67.40;;;;;;5032650;28;19956;-82
2022/10/03 00:42:24;;;;;;;;;;;14.70;67.50;;;;;;5037401;28;19920;-82
2022/10/03 00:45:09;;;;;;;;;;;14.60;67.40;;;;;;5053345;28;20262;-81
2022/10/03 00:47:47;;;;;;;;;;;14.60;67.50;;;;;;5037268;28;20381;-81
2022/10/03 00:50:16;;;;;;;;;;;14.60;67.50;;;;;;5036839;28;19925;-81
2022/10/03 00:52:55;;;;;;;;;;;14.60;67.50;;;;;;5035763;28;19925;-81
2022/10/03 00:55:39;;;;;;;;;;;14.60;67.60;;;;;;5052483;28;19935;-81
2022/10/03 00:58:04;;;;;;;;;;;14.60;67.50;;;;;;5036273;28;20345;-81
2022/10/03 01:00:31;;;;;;;;;;;14.50;67.50;;;;;;5035561;28;19910;-81
2022/10/03 01:02:57;;;;;;;;;;;14.50;67.50;;;;;;5052093;28;20365;-81
2022/10/03 01:05:22;;;;;;;;;;;14.50;67.50;;;;;;5052884;28;19916;-81
2022/10/03 01:08:07;;;;;;;;;;;14.50;67.90;;;;;;5035268;28;20369;-81
2022/10/03 01:10:38;;;;;;;;;;;14.50;67.50;;;;;;5051713;28;19928;-82
2022/10/03 01:13:14;;;;;;;;;;;14.40;67.50;;;;;;5035558;28;20290;-82
2022/10/03 01:15:58;;;;;;;;;;;14.40;67.50;;;;;;5034978;28;19920;-82
2022/10/03 01:18:53;;;;;;;;;;;14.40;67.60;;;;;;5051895;28;19920;-81
2022/10/03 01:21:26;;;;;;;;;;;14.40;67.60;;;;;;5005523;28;19963;-81
2022/10/03 01:24:17;;;;;;;;;;;14.40;67.60;;;;;;5035512;28;20052;-83
2022/10/03 01:26:52;;;;;;;;;;;14.30;67.60;;;;;;5035359;28;19974;-82
2022/10/03 01:32:09;;;;;;;;;;;14.30;67.70;;;;;;5036359;28;19964;-82
2022/10/03 01:34:47;;;;;;;;;;;14.30;67.70;;;;;;5036116;28;19913;-82
2022/10/03 01:37:14;;;;;;;;;;;14.30;67.70;;;;;;5034069;28;19913;-81
2022/10/03 01:39:49;;;;;;;;;;;14.20;67.70;;;;;;5034951;28;20344;-81
2022/10/03 01:42:32;;;;;;;;;;;14.20;67.70;;;;;;5051657;28;20385;-81
2022/10/03 01:44:58;;;;;;;;;;;14.20;67.70;;;;;;5051386;28;20009;-80
2022/10/03 01:47:30;;;;;;;;;;;14.20;67.70;;;;;;5051317;28;19999;-80
2022/10/03 01:49:56;;;;;;;;;;;14.20;67.70;;;;;;5051205;28;19918;-81
2022/10/03 01:52:21;;;;;;;;;;;14.20;67.70;;;;;;5051218;28;19992;-81
2022/10/03 01:55:11;;;;;;;;;;;14.10;67.70;;;;;;5051182;28;19913;-80
2022/10/03 01:57:36;;;;;;;;;;;14.10;67.70;;;;;;5035427;28;20293;-82
2022/10/03 02:00:16;;;;;;;;;;;14.10;67.70;;;;;;5051253;28;19920;-81
2022/10/03 02:02:45;;;;;;;;;;;14.10;67.80;;;;;;5036352;28;19917;-81
2022/10/03 02:05:27;;;;;;;;;;;14.10;67.80;;;;;;5051297;28;19953;-81
2022/10/03 02:08:02;;;;;;;;;;;14.00;67.80;;;;;;5035261;28;19913;-80
2022/10/03 02:10:37;;;;;;;;;;;14.00;67.80;;;;;;5034223;28;19917;-81
2022/10/03 02:13:03;;;;;;;;;;;14.00;67.80;;;;;;5034519;28;19917;-81
2022/10/03 02:15:31;;;;;;;;;;;14.00;67.80;;;;;;5051574;28;20280;-82
2022/10/03 02:18:07;;;;;;;;;;;14.00;67.80;;;;;;5050785;28;19913;-81
2022/10/03 02:20:46;;;;;;;;;;;14.00;67.80;;;;;;5033839;28;20000;-81
2022/10/03 02:23:35;;;;;;;;;;;14.00;67.80;;;;;;5033969;28;19917;-82
2022/10/03 02:26:30;;;;;;;;;;;14.00;67.80;;;;;;5025904;28;19920;-81
2022/10/03 02:29:14;;;;;;;;;;;13.90;67.80;;;;;;5035652;28;20071;-81
2022/10/03 02:32:02;;;;;;;;;;;13.90;67.80;;;;;;5051320;28;19913;-81
2022/10/03 02:34:28;;;;;;;;;;;13.90;67.90;;;;;;5050620;28;19914;-81
2022/10/03 02:36:59;;;;;;;;;;;13.80;67.80;;;;;;5035493;28;19916;-82
2022/10/03 02:39:31;;;;;;;;;;;13.90;67.90;;;;;;5034877;28;19968;-81
2022/10/03 02:42:24;;;;;;;;;;;13.80;67.90;;;;;;5034644;28;20334;-81
2022/10/03 02:44:49;;;;;;;;;;;13.80;67.90;;;;;;5050581;28;19913;-81
2022/10/03 02:47:18;;;;;;;;;;;13.80;67.90;;;;;;5050060;28;19909;-81
2022/10/03 02:50:02;;;;;;;;;;;13.70;67.80;;;;;;5033616;28;19928;-81
2022/10/03 02:52:40;;;;;;;;;;;13.80;67.90;;;;;;5050009;28;19913;-82
2022/10/03 02:55:06;;;;;;;;;;;13.70;67.90;;;;;;5050122;28;20366;-82
2022/10/03 02:57:50;;;;;;;;;;;13.70;67.90;;;;;;5049897;28;19913;-81
2022/10/03 03:00:20;;;;;;;;;;;13.70;67.90;;;;;;5049939;28;19920;-81
2022/10/03 03:02:46;;;;;;;;;;;13.70;67.90;;;;;;5049964;28;19913;-82
2022/10/03 03:05:30;;;;;;;;;;;13.70;67.90;;;;;;5033859;28;19963;-81
2022/10/03 03:07:59;;;;;;;;;;;13.60;67.90;;;;;;5034455;28;19921;-82
2022/10/03 03:10:30;;;;;;;;;;;13.60;67.90;;;;;;5032981;28;19924;-81
2022/10/03 03:13:15;;;;;;;;;;;13.60;67.90;;;;;;5034558;28;20000;-82
2022/10/03 03:16:04;;;;;;;;;;;13.60;68.00;;;;;;5033056;28;19967;-81
2022/10/03 03:18:38;;;;;;;;;;;13.60;68.00;;;;;;5032241;28;19967;-81
2022/10/03 03:21:09;;;;;;;;;;;13.50;68.00;;;;;;5034253;28;19920;-81
2022/10/03 03:23:37;;;;;;;;;;;13.60;68.00;;;;;;5033430;28;20247;-81
2022/10/03 03:26:12;;;;;;;;;;;13.50;68.00;;;;;;5049891;28;20264;-80
2022/10/03 03:28:38;;;;;;;;;;;13.50;68.00;;;;;;5032768;28;20053;-80
2022/10/03 03:31:09;;;;;;;;;;;13.50;68.00;;;;;;5033269;28;19920;-81
2022/10/03 03:33:51;;;;;;;;;;;13.50;68.00;;;;;;5050202;28;19920;-80
2022/10/03 03:36:29;;;;;;;;;;;13.50;68.10;;;;;;5032920;28;20016;-81
2022/10/03 03:39:04;;;;;;;;;;;13.50;68.00;;;;;;5032874;28;20016;-81
2022/10/03 03:41:45;;;;;;;;;;;13.50;68.10;;;;;;5049667;28;19952;-81
2022/10/03 03:44:36;;;;;;;;;;;13.40;68.00;;;;;;5032803;28;19913;-81
2022/10/03 03:47:11;;;;;;;;;;;13.40;68.00;;;;;;5034596;28;19917;-80
2022/10/03 03:49:36;;;;;;;;;;;13.40;68.00;;;;;;5032644;28;19975;-81
2022/10/03 03:52:20;;;;;;;;;;;13.40;68.00;;;;;;5049547;28;19909;-81
2022/10/03 03:54:49;;;;;;;;;;;13.30;68.00;;;;;;5033993;28;19920;-81
2022/10/03 03:57:36;;;;;;;;;;;13.30;68.00;;;;;;5032518;28;19980;-80
2022/10/03 04:00:05;;;;;;;;;;;13.40;68.10;;;;;;5036664;28;19921;-80
2022/10/03 04:02:30;;;;;;;;;;;13.30;68.10;;;;;;5036944;28;19916;-81
2022/10/03 04:04:59;;;;;;;;;;;13.30;68.10;;;;;;5053066;28;19913;-81
2022/10/03 04:07:47;;;;;;;;;;;13.30;68.10;;;;;;5053491;28;19913;-81
2022/10/03 04:10:24;;;;;;;;;;;13.30;68.10;;;;;;5052842;28;20453;-81
2022/10/03 04:12:50;;;;;;;;;;;13.30;68.10;;;;;;5038577;28;20372;-81
2022/10/03 04:15:51;;;;;;;;;;;13.30;68.10;;;;;;5052900;28;19909;-81
2022/10/03 04:21:13;;;;;;;;;;;13.20;68.10;;;;;;5036478;28;19913;-82
2022/10/03 04:23:44;;;;;;;;;;;13.20;68.10;;;;;;5037563;28;19923;-82
2022/10/03 04:26:20;;;;;;;;;;;13.20;68.10;;;;;;5052883;28;19913;-81
2022/10/03 04:28:46;;;;;;;;;;;13.20;68.10;;;;;;5036689;28;20362;-81
2022/10/03 04:31:13;;;;;;;;;;;13.20;68.10;;;;;;5037381;28;19979;-81
2022/10/03 04:33:57;;;;;;;;;;;13.20;68.10;;;;;;5052866;28;19917;-81
2022/10/03 04:36:32;;;;;;;;;;;13.10;68.10;;;;;;5053098;28;20013;-82
2022/10/03 04:39:16;;;;;;;;;;;13.10;68.80;;;;;;5053502;28;19920;-80
2022/10/03 04:41:48;;;;;;;;;;;13.10;68.10;;;;;;5037276;28;19999;-81
2022/10/03 04:44:20;;;;;;;;;;;13.10;68.10;;;;;;5037966;28;19917;-82
2022/10/03 04:47:12;;;;;;;;;;;13.00;68.10;;;;;;5052705;28;19919;-81
2022/10/03 04:49:42;;;;;;;;;;;13.10;68.20;;;;;;5035876;28;19921;-83
2022/10/03 04:52:24;;;;;;;;;;;13.00;68.10;;;;;;5036232;28;19913;-81
2022/10/03 04:55:05;;;;;;;;;;;13.00;68.10;;;;;;5035588;28;19920;-80
2022/10/03 04:57:31;;;;;;;;;;;13.00;68.80;;;;;;5037102;28;20380;-79
2022/10/03 04:59:56;;;;;;;;;;;13.00;68.10;;;;;;5051817;28;19917;-81
2022/10/03 05:02:34;;;;;;;;;;;13.00;68.20;;;;;;5035539;28;20000;-81
2022/10/03 05:05:18;;;;;;;;;;;13.00;68.20;;;;;;5036425;28;20430;-80
2022/10/03 05:07:47;;;;;;;;;;;13.00;68.20;;;;;;5052756;28;19913;-80
2022/10/03 05:10:24;;;;;;;;;;;12.90;68.10;;;;;;5033936;28;19960;-80
2022/10/03 05:12:54;;;;;;;;;;;12.90;68.20;;;;;;5036406;28;20008;-80
2022/10/03 05:15:28;;;;;;;;;;;12.90;68.20;;;;;;5035972;28;19913;-81
2022/10/03 05:18:09;;;;;;;;;;;12.90;68.20;;;;;;5051794;28;20370;-80
2022/10/03 05:20:38;;;;;;;;;;;12.90;68.20;;;;;;5052208;28;19917;-78
2022/10/03 05:23:22;;;;;;;;;;;12.90;68.20;;;;;;5036852;28;19910;-79
2022/10/03 05:25:57;;;;;;;;;;;12.80;68.20;;;;;;5035004;28;19936;-80
2022/10/03 05:28:41;;;;;;;;;;;12.80;68.20;;;;;;5036377;28;19925;-79
2022/10/03 05:31:27;;;;;;;;;;;12.80;68.20;;;;;;5052237;28;19917;-81
2022/10/03 05:34:02;;;;;;;;;;;12.80;68.20;;;;;;5034864;28;19917;-80
2022/10/03 05:36:28;;;;;;;;;;;12.80;68.20;;;;;;5035494;28;19999;-81
2022/10/03 05:39:00;;;;;;;;;;;12.80;68.30;;;;;;5035747;28;19944;-80
2022/10/03 05:41:35;;;;;;;;;;;12.80;68.30;;;;;;5051037;28;19913;-81
2022/10/03 05:44:01;;;;;;;;;;;12.80;68.30;;;;;;5018268;28;19932;-82
2022/10/03 05:46:39;;;;;;;;;;;12.80;68.20;;;;;;5051248;28;19909;-80
2022/10/03 05:49:22;;;;;;;;;;;12.70;68.20;;;;;;5035490;28;19925;-81
2022/10/03 05:51:48;;;;;;;;;;;12.70;68.20;;;;;;5035151;28;20322;-81
2022/10/03 05:54:29;;;;;;;;;;;12.70;68.20;;;;;;5036091;28;19917;-81
2022/10/03 05:56:54;;;;;;;;;;;12.70;68.20;;;;;;5034205;28;19913;-80
2022/10/03 05:59:29;;;;;;;;;;;12.70;68.30;;;;;;5051330;28;19955;-80
2022/10/03 06:02:14;;;;;;;;;;;12.60;68.20;;;;;;5035582;28;20007;-81
2022/10/03 06:04:42;;;;;;;;;;;12.60;68.20;;;;;;5051161;28;19913;-81
2022/10/03 06:07:11;;;;;;;;;;;12.60;68.20;;;;;;5035462;28;20354;-83
2022/10/03 06:10:03;;;;;;;;;;;12.60;68.30;;;;;;5051127;28;20008;-83
2022/10/03 06:12:33;;;;;;;;;;;12.60;68.30;;;;;;5017440;28;19917;-81
2022/10/03 06:15:18;;;;;;;;;;;12.60;68.30;;;;;;5051062;28;19954;-82
2022/10/03 06:17:50;;;;;;;;;;;12.60;68.30;;;;;;5034627;28;19909;-82
2022/10/03 06:20:30;;;;;;;;;;;12.60;68.30;;;;;;5034183;28;20374;-81
2022/10/03 06:22:55;;;;;;;;;;;12.60;68.30;;;;;;5034007;28;20260;-82
2022/10/03 06:25:27;;;;;;;;;;;12.60;68.40;;;;;;5035025;28;19992;-83
2022/10/03 06:28:28;;;;;;;;;;;12.50;68.30;;;;;;5050637;28;19921;-81
2022/10/03 06:31:11;;;;;;;;;;;12.50;68.30;;;;;;4993836;28;20006;-82
2022/10/03 06:33:40;;;;;;;;;;;12.50;68.30;;;;;;5028191;28;20358;-82
2022/10/03 06:36:06;;;;;;;;;;;12.50;68.40;;;;;;5035248;28;19909;-82
2022/10/03 06:38:50;;;;;;;;;;;12.50;68.40;;;;;;5050412;28;20439;-82
2022/10/03 06:41:35;;;;;;;;;;;12.50;68.40;;;;;;5034472;28;19913;-81
2022/10/03 06:44:07;;;;;;;;;;;12.50;68.40;;;;;;5050526;28;19909;-82
2022/10/03 06:46:46;;;;;;;;;;;12.50;68.40;;;;;;5035252;28;19967;-82
2022/10/03 06:49:11;;;;;;;;;;;12.50;68.40;;;;;;5033833;28;19928;-81
2022/10/03 06:51:40;;;;;;;;;;;12.50;68.50;;;;;;5035068;28;20269;-81
2022/10/03 06:54:05;;;;;;;;;;;12.50;68.50;;;;;;5050533;28;19916;-82
2022/10/03 06:56:50;;;;;;;;;;;12.40;68.40;;;;;;5033578;28;20254;-83
2022/10/03 06:59:31;;;;;;;;;;;12.40;68.40;;;;;;5050114;28;19992;-82
2022/10/03 07:02:02;;;;;;;;;;;12.40;68.50;;;;;;5033414;28;19913;-82
2022/10/03 07:04:44;;;;;;;;;;;12.40;68.50;;;;;;5033460;28;19939;-82
2022/10/03 07:07:28;;;;;;;;;;;12.40;68.50;;;;;;5033925;28;19917;-82
2022/10/03 07:10:13;;;;;;;;;;;12.40;68.50;;;;;;5033328;28;19913;-82
2022/10/03 07:12:54;;;;;;;;;;;12.40;68.50;;;;;;5034762;28;20323;-81
2022/10/03 07:15:21;;;;;;;;;;;12.50;68.60;;;;;;5034422;28;19920;-82
2022/10/03 07:17:55;;;;;;;;;;;12.40;68.50;;;;;;5049894;28;20350;-82
2022/10/03 07:20:41;;;;;;;;;;;12.40;68.50;;;;;;5034451;28;19909;-83
2022/10/03 07:23:25;;;;;;;;;;;12.40;68.60;;;;;;5005809;28;20285;-83
2022/10/03 07:26:09;;;;;;;;;;;12.40;68.60;;;;;;5050059;28;20282;-81
2022/10/03 07:28:50;;;;;;;;;;;12.40;68.60;;;;;;5049004;28;19971;-79
2022/10/03 07:31:34;;;;;;;;;;;12.40;68.60;;;;;;5032776;28;19924;-80
2022/10/03 07:34:23;;;;;;;;;;;12.40;68.70;;;;;;5049406;28;19914;-81
2022/10/03 07:39:51;;;;;;;;;;;12.50;68.70;;;;;;5034019;28;19963;-81
2022/10/03 07:42:28;;;;;;;;;;;12.50;68.70;;;;;;5049498;28;20064;-81
2022/10/03 07:44:57;;;;;;;;;;;12.50;68.70;;;;;;5033001;28;19963;-80
2022/10/03 07:47:41;;;;;;;;;;;12.50;68.70;;;;;;5049375;28;19909;-81
2022/10/03 07:50:25;;;;;;;;;;;12.50;68.70;;;;;;5049275;28;19917;-84
2022/10/03 07:53:09;;;;;;;;;;;12.50;68.70;;;;;;5049203;28;19917;-81
2022/10/03 07:55:53;;;;;;;;;;;12.50;68.70;;;;;;5032718;28;20012;-82
2022/10/03 07:58:47;;;;;;;;;;;12.50;68.70;;;;;;5049207;28;19920;-81
2022/10/03 08:01:13;;;;;;;;;;;12.50;68.80;;;;;;5032868;28;19936;-81
2022/10/03 08:03:47;;;;;;;;;;;12.60;68.80;;;;;;5049236;28;20374;-81
2022/10/03 08:06:23;;;;;;;;;;;12.60;68.80;;;;;;5032607;28;20353;-81
2022/10/03 08:08:52;;;;;;;;;;;12.60;68.90;;;;;;5032670;28;20016;-81
2022/10/03 08:11:31;;;;;;;;;;;12.60;68.90;;;;;;5048847;28;19953;-81
2022/10/03 08:13:56;;;;;;;;;;;12.60;68.90;;;;;;5033015;28;19963;-81
2022/10/03 08:16:22;;;;;;;;;;;12.60;68.90;;;;;;5048872;28;19913;-81
2022/10/03 08:18:48;;;;;;;;;;;12.60;68.90;;;;;;5033333;28;19913;-80
2022/10/03 08:21:25;;;;;;;;;;;12.70;68.90;;;;;;5048956;28;19920;-81
2022/10/03 08:24:10;;;;;;;;;;;12.70;69.00;;;;;;5032056;28;19996;-82
2022/10/03 08:26:42;;;;;;;;;;;12.70;69.00;;;;;;5032179;28;19913;-81
2022/10/03 08:29:08;;;;;;;;;;;12.70;69.00;;;;;;5033517;28;19961;-80
2022/10/03 08:31:43;;;;;;;;;;;12.80;69.00;;;;;;5032395;28;19920;-81
2022/10/03 08:34:44;;;;;;;;;;;12.80;69.10;;;;;;5032659;28;19967;-81
2022/10/03 08:37:19;;;;;;;;;;;12.80;69.10;;;;;;4976002;28;19936;-81
2022/10/03 08:40:04;;;;;;;;;;;12.80;69.00;;;;;;5023222;28;19916;-81
2022/10/03 08:42:38;;;;;;;;;;;12.90;69.10;;;;;;5033600;28;19920;-81
2022/10/03 08:45:13;;;;;;;;;;;12.90;69.10;;;;;;5049554;28;20016;-81
2022/10/03 08:47:58;;;;;;;;;;;12.90;69.10;;;;;;5035819;28;19917;-82
2022/10/03 08:50:47;;;;;;;;;;;13.00;69.20;;;;;;5052017;28;20339;-81
2022/10/03 08:53:19;;;;;;;;;;;13.00;69.10;;;;;;4991634;28;19917;-82
2022/10/03 08:55:51;;;;;;;;;;;13.00;69.10;;;;;;5036231;28;19913;-82
2022/10/03 08:58:43;;;;;;;;;;;13.00;69.10;;;;;;5036456;28;19919;-81
2022/10/03 09:01:21;;;;;;;;;;;13.10;69.10;;;;;;5012331;28;19974;-82
2022/10/03 09:04:01;;;;;;;;;;;13.10;69.10;;;;;;5035237;28;19921;-82
2022/10/03 09:06:45;;;;;;;;;;;13.20;69.10;;;;;;5052302;28;19982;-81
2022/10/03 09:09:29;;;;;;;;;;;13.20;69.00;;;;;;5035678;28;19999;-82
2022/10/03 09:12:24;;;;;;;;;;;13.30;69.00;;;;;;5052199;28;19917;-81
2022/10/03 09:14:53;;;;;;;;;;;13.40;69.00;;;;;;4984220;28;19964;-81
2022/10/03 09:17:51;;;;;;;;;;;13.40;69.00;;;;;;5036688;28;20239;-82
2022/10/03 09:20:30;;;;;;;;;;;13.50;68.90;;;;;;5002791;28;20374;-82
2022/10/03 09:23:18;;;;;;;;;;;13.50;68.80;;;;;;5051771;28;20432;-83
2022/10/03 09:25:47;;;;;;;;;;;13.60;68.80;;;;;;5036244;28;19913;-81
2022/10/03 09:28:12;;;;;;;;;;;13.70;68.70;;;;;;5036372;28;19917;-82
2022/10/03 09:30:38;;;;;;;;;;;13.80;68.70;;;;;;5051874;28;19966;-82
2022/10/03 09:33:18;;;;;;;;;;;13.80;68.60;;;;;;5036206;28;19990;-82
2022/10/03 09:35:47;;;;;;;;;;;13.90;68.60;;;;;;5035784;28;19960;-82
2022/10/03 09:38:31;;;;;;;;;;;14.00;68.70;;;;;;5051697;28;19909;-82
2022/10/03 09:40:57;;;;;;;;;;;14.10;68.70;;;;;;5035021;28;19917;-82
2022/10/03 09:43:32;;;;;;;;;;;14.10;68.70;;;;;;5035635;28;20301;-81
2022/10/03 09:46:16;;;;;;;;;;;14.20;68.70;;;;;;5051986;28;19992;-82
2022/10/03 09:48:45;;;;;;;;;;;14.30;68.80;;;;;;5051559;28;19942;-82
2022/10/03 09:51:30;;;;;;;;;;;14.40;68.70;;;;;;5052111;28;19913;-81
2022/10/03 09:53:58;;;;;;;;;;;14.50;68.80;;;;;;5034832;28;19913;-82
2022/10/03 09:56:24;;;;;;;;;;;14.60;68.80;;;;;;5050964;28;19931;-81
2022/10/03 09:58:53;;;;;;;;;;;14.70;68.90;;;;;;5051630;28;20357;-81
2022/10/03 10:01:18;;;;;;;;;;;14.70;68.80;;;;;;5051465;28;19909;-82
2022/10/03 10:03:47;;;;;;;;;;;14.80;68.90;;;;;;5051110;28;19920;-81
2022/10/03 10:06:12;;;;;;;;;;;14.90;69.00;;;;;;5051077;28;19916;-82
2022/10/03 10:08:50;;;;;;;;;;;15.00;69.00;;;;;;5034388;28;19917;-82
2022/10/03 10:11:18;;;;;;;;;;;15.10;69.00;;;;;;5034720;28;19924;-82
2022/10/03 10:14:09;;;;;;;;;;;15.20;69.10;;;;;;5034176;28;20361;-81
2022/10/03 10:16:35;;;;;;;;;;;15.30;69.10;;;;;;5035179;28;19913;-82
2022/10/03 10:19:24;;;;;;;;;;;15.40;69.20;;;;;;5050833;28;19909;-82
2022/10/03 10:22:02;;;;;;;;;;;15.50;69.20;;;;;;4990146;28;19913;-81
2022/10/03 10:24:27;;;;;;;;;;;15.60;69.30;;;;;;5035150;28;19913;-81
2022/10/03 10:27:08;;;;;;;;;;;15.60;69.30;;;;;;5033811;28;20342;-81
2022/10/03 10:29:52;;;;;;;;;;;15.70;69.30;;;;;;5035826;28;19976;-82
2022/10/03 10:32:30;;;;;;;;;;;15.80;69.40;;;;;;5050710;28;19917;-82
2022/10/03 10:34:59;;;;;;;;;;;15.90;69.50;;;;;;5034333;28;19913;-82
2022/10/03 10:37:43;;;;;;;;;;;16.00;69.50;;;;;;5034329;28;19995;-82
2022/10/03 10:40:20;;;;;;;;;;;16.10;69.60;;;;;;5034326;28;19955;-83
2022/10/03 10:43:05;;;;;;;;;;;16.20;69.70;;;;;;5034147;28;19920;-82
2022/10/03 10:45:41;;;;;;;;;;;16.30;69.80;;;;;;5034439;28;20257;-83
2022/10/03 10:48:14;;;;;;;;;;;16.30;69.80;;;;;;5050636;28;19909;-82
2022/10/03 10:50:54;;;;;;;;;;;16.40;69.90;;;;;;5033705;28;19917;-81
2022/10/03 10:53:46;;;;;;;;;;;16.50;70.00;;;;;;5035674;28;19917;-89
2022/10/03 10:56:30;;;;;;;;;;;16.50;70.10;;;;;;5019286;28;19917;-85
2022/10/03 10:59:08;;;;;;;;;;;16.60;70.20;;;;;;5035207;28;19913;-83
2022/10/03 11:01:40;;;;;;;;;;;16.70;70.30;;;;;;5034634;28;19913;-84
2022/10/03 11:04:24;;;;;;;;;;;16.70;70.30;;;;;;5034492;28;19917;-93
2022/10/03 11:07:02;;;;;;;;;;;16.80;70.40;;;;;;5034225;28;19909;-87
2022/10/03 11:09:46;;;;;;;;;;;16.80;70.50;;;;;;5034435;28;19917;-90
2022/10/03 11:12:31;;;;;;;;;;;16.90;70.60;;;;;;5035368;28;20051;-92
2022/10/03 11:15:16;;;;;;;;;;;17.00;70.70;;;;;;5034287;28;19913;-91
2022/10/03 11:17:54;;;;;;;;;;;17.00;70.80;;;;;;5051494;28;19913;-91
2022/10/03 11:20:19;;;;;;;;;;;17.10;70.90;;;;;;5035358;28;19974;-92
2022/10/03 11:22:48;;;;;;;;;;;17.00;70.90;;;;;;5051116;28;20413;-90
2022/10/03 11:25:13;;;;;;;;;;;17.10;71.00;;;;;;5036470;28;20030;-91
2022/10/03 11:27:48;;;;;;;;;;;17.20;71.10;;;;;;5060679;28;19975;-91
2022/10/03 11:30:21;;;;;;;;;;;17.20;71.20;;;;;;5057601;28;20358;-89
2022/10/03 11:32:47;;;;;;;;;;;17.30;71.30;;;;;;5037009;28;19970;-90
2022/10/03 11:35:31;;;;;;;;;;;17.30;71.40;;;;;;5050865;28;19948;-89
2022/10/03 11:38:06;;;;;;;;;;;17.30;71.40;;;;;;5050311;28;19913;-86
2022/10/03 11:40:50;;;;;;;;;;;17.40;71.60;;;;;;5033587;28;19917;-86
2022/10/03 11:43:25;;;;;;;;;;;17.40;71.60;;;;;;5050042;28;20380;-85
2022/10/03 11:45:54;;;;;;;;;;;17.50;71.70;;;;;;5050685;28;19913;-84
2022/10/03 11:48:20;;;;;;;;;;;17.50;71.70;;;;;;5033107;28;19909;-84
2022/10/03 11:50:50;;;;;;;;;;;17.60;71.80;;;;;;5049992;28;19917;-83
2022/10/03 11:53:18;;;;;;;;;;;17.60;71.90;;;;;;5033318;28;19956;-84
2022/10/03 11:55:50;;;;;;;;;;;17.60;71.80;;;;;;5034724;28;19909;-83
2022/10/03 11:58:15;;;;;;;;;;;17.70;71.90;;;;;;5033755;28;20380;-85
2022/10/03 12:00:43;;;;;;;;;;;17.70;71.90;;;;;;5034253;28;19996;-85
2022/10/03 12:03:16;;;;;;;;;;;17.80;71.90;;;;;;5033498;28;19913;-84
2022/10/03 12:05:51;;;;;;;;;;;17.80;71.90;;;;;;5034065;28;19917;-84
2022/10/03 12:11:28;;;;;;;;;;;17.90;72.00;;;;;;5050123;28;20003;-87
2022/10/03 12:14:06;;;;;;;;;;;17.90;72.00;;;;;;5033487;28;19917;-86
2022/10/03 12:16:52;;;;;;;;;;;17.90;72.00;;;;;;5050714;28;19917;-87
2022/10/03 12:19:29;;;;;;;;;;;18.00;72.00;;;;;;5050478;28;19917;-86
2022/10/03 12:22:01;;;;;;;;;;;18.00;72.00;;;;;;5037483;28;19976;-86
2022/10/03 12:24:28;;;;;;;;;;;18.10;72.00;;;;;;5038305;28;19949;-85
2022/10/03 12:26:53;;;;;;;;;;;18.10;72.00;;;;;;5036893;28;19909;-85
2022/10/03 12:29:20;;;;;;;;;;;18.10;72.00;;;;;;5053948;28;19923;-85
2022/10/03 12:31:49;;;;;;;;;;;18.20;72.00;;;;;;5037201;28;19920;-85
2022/10/03 12:34:21;;;;;;;;;;;18.20;72.00;;;;;;5036427;28;19913;-82
2022/10/03 12:37:06;;;;;;;;;;;18.20;71.90;;;;;;5054492;28;19920;-85
2022/10/03 12:39:45;;;;;;;;;;;18.30;72.00;;;;;;5038019;28;20330;-85
2022/10/03 12:42:32;;;;;;;;;;;18.30;71.90;;;;;;5037287;28;19988;-85
2022/10/03 12:45:05;;;;;;;;;;;18.40;71.90;;;;;;5037060;28;19913;-84
2022/10/03 12:47:33;;;;;;;;;;;18.40;71.90;;;;;;5037734;28;20326;-85
2022/10/03 12:50:24;;;;;;;;;;;18.40;71.80;;;;;;5037645;28;19913;-85
2022/10/03 12:52:56;;;;;;;;;;;18.50;71.90;;;;;;5036670;28;19917;-85
2022/10/03 12:55:21;;;;;;;;;;;18.50;71.80;;;;;;5053876;28;20452;-85
2022/10/03 12:57:50;;;;;;;;;;;18.60;71.80;;;;;;5037957;28;19948;-85
2022/10/03 13:00:19;;;;;;;;;;;18.60;71.70;;;;;;5037396;28;19913;-85
2022/10/03 13:02:54;;;;;;;;;;;18.60;71.70;;;;;;5036579;28;19913;-85
2022/10/03 13:05:28;;;;;;;;;;;18.70;71.60;;;;;;5037380;28;19959;-86
2022/10/03 13:08:01;;;;;;;;;;;18.70;71.60;;;;;;5036376;28;19913;-85
2022/10/03 13:10:30;;;;;;;;;;;18.70;71.50;;;;;;5037266;28;19917;-85
2022/10/03 13:13:14;;;;;;;;;;;18.70;71.40;;;;;;5036139;28;20358;-85
2022/10/03 13:16:02;;;;;;;;;;;18.80;71.40;;;;;;5037538;28;19920;-86
2022/10/03 13:18:28;;;;;;;;;;;18.80;71.40;;;;;;5053159;28;19916;-86
2022/10/03 13:20:58;;;;;;;;;;;18.80;71.30;;;;;;5037440;28;20003;-87
2022/10/03 13:23:35;;;;;;;;;;;18.90;71.40;;;;;;5036477;28;19913;-85
2022/10/03 13:26:10;;;;;;;;;;;18.90;71.30;;;;;;5036031;28;19963;-86
2022/10/03 13:28:58;;;;;;;;;;;19.00;71.30;;;;;;5035753;28;20007;-86
2022/10/03 13:31:33;;;;;;;;;;;18.90;71.20;;;;;;5035796;28;19924;-85
2022/10/03 13:34:01;;;;;;;;;;;19.00;71.20;;;;;;5037429;28;19960;-85
2022/10/03 13:36:47;;;;;;;;;;;19.00;71.20;;;;;;5036027;28;19909;-86
2022/10/03 13:39:32;;;;;;;;;;;19.10;71.20;;;;;;5036915;28;19980;-85
2022/10/03 13:42:07;;;;;;;;;;;19.10;71.20;;;;;;5036778;28;19914;-85
2022/10/03 13:44:38;;;;;;;;;;;19.10;71.20;;;;;;5036992;28;19924;-85
2022/10/03 13:47:06;;;;;;;;;;;19.20;71.90;;;;;;5038967;28;20000;-85
2022/10/03 13:49:35;;;;;;;;;;;19.10;71.10;;;;;;5040128;28;20419;-86
2022/10/03 13:52:01;;;;;;;;;;;19.20;71.10;;;;;;5054190;28;19944;-85
2022/10/03 13:54:29;;;;;;;;;;;19.20;71.10;;;;;;5035935;28;19916;-86
2022/10/03 13:56:58;;;;;;;;;;;19.20;71.10;;;;;;5052694;28;20354;-86
2022/10/03 13:59:26;;;;;;;;;;;19.20;71.00;;;;;;5037087;28;19973;-86
2022/10/03 14:02:15;;;;;;;;;;;19.30;71.00;;;;;;5035511;28;19924;-86
2022/10/03 14:04:40;;;;;;;;;;;19.30;71.00;;;;;;5035804;28;19920;-85
2022/10/03 14:07:14;;;;;;;;;;;19.30;70.90;;;;;;5052291;28;19909;-85
2022/10/03 14:09:59;;;;;;;;;;;19.30;70.90;;;;;;5052300;28;20381;-86
2022/10/03 14:12:40;;;;;;;;;;;19.40;70.90;;;;;;5035538;28;19917;-86
2022/10/03 14:15:21;;;;;;;;;;;19.40;70.90;;;;;;5036519;28;19913;-86
2022/10/03 14:17:46;;;;;;;;;;;19.40;70.80;;;;;;5035024;28;19963;-84
2022/10/03 14:20:18;;;;;;;;;;;19.50;70.90;;;;;;5036766;28;19913;-87
2022/10/03 14:23:04;;;;;;;;;;;19.40;70.80;;;;;;5051840;28;19909;-87
2022/10/03 14:25:39;;;;;;;;;;;19.50;70.80;;;;;;5035188;28;20075;-89
2022/10/03 14:28:11;;;;;;;;;;;19.50;70.70;;;;;;5051331;28;19925;-86
2022/10/03 14:30:49;;;;;;;;;;;19.50;70.70;;;;;;5051845;28;20338;-87
2022/10/03 14:33:30;;;;;;;;;;;19.50;70.60;;;;;;5051572;28;19925;-86
2022/10/03 14:36:03;;;;;;;;;;;19.50;70.50;;;;;;5035336;28;19920;-87
2022/10/03 14:39:20;;;;;;;;;;;19.60;70.50;;;;;;5034929;28;19949;-88
2022/10/03 14:41:27;;;;;;;;;;;19.60;70.40;;;;;;5026299;28;20262;-87
2022/10/03 14:43:58;;;;;;;;;;;19.60;70.40;;;;;;5034240;28;20012;-88
2022/10/03 14:46:25;;;;;;;;;;;19.60;70.30;;;;;;5051423;28;19913;-88
2022/10/03 14:48:57;;;;;;;;;;;19.60;70.20;;;;;;5034620;28;20076;-86
2022/10/03 14:51:29;;;;;;;;;;;19.70;70.10;;;;;;5034661;28;19988;-88
2022/10/03 14:54:01;;;;;;;;;;;19.70;70.10;;;;;;5051251;28;19914;-86
2022/10/03 14:56:29;;;;;;;;;;;19.70;70.00;;;;;;5034673;28;19913;-84
2022/10/03 14:58:56;;;;;;;;;;;19.70;69.90;;;;;;5035457;28;19916;-85
2022/10/03 15:01:23;;;;;;;;;;;19.70;69.80;;;;;;5033911;28;19917;-83
2022/10/03 15:04:02;;;;;;;;;;;19.70;69.70;;;;;;5034866;28;19955;-82
2022/10/03 15:06:34;;;;;;;;;;;19.70;69.70;;;;;;5049714;28;20012;-83
2022/10/03 15:09:03;;;;;;;;;;;19.70;69.60;;;;;;5049610;28;19964;-82
2022/10/03 15:11:31;;;;;;;;;;;19.80;69.60;;;;;;5033104;28;19959;-81
2022/10/03 15:14:01;;;;;;;;;;;19.80;69.50;;;;;;5032986;28;19921;-82
2022/10/03 15:16:31;;;;;;;;;;;19.80;69.40;;;;;;5034279;28;19909;-82